Latest Weather Observations for Gunnedah Airport

IDN60801

Issued at 8:33 am EST Sunday 25 September 2016 (issued every 30 minutes, with the page automatically refreshed every 10 minutes)

About weather observations | Map of weather stations | Latest weather observations for NSW | Other Formats
Station Details ID: 055202 Name: GUNNEDAH AIRPORT AWS Lat: -30.95 Lon: 150.25 Height: 262.57 m
Data from the previous 72 hours. | See also: Recent months at Gunnedah Airport
Date/Time
EST
Temp
°C
App
Temp
°C
Dew
Point
°C
Rel
Hum
%
Delta-T
°C
Wind Press
QNH
hPa
Press
MSL
hPa
Rain since
9am
mm
Dir  Spd
km/h
Gust
km/h
Spd
kts
Gust
kts
25/08:30am 13.1 13.6 11.7 91 0.8 CALM 0 0 0 0 1009.7 1009.4 4.2
25/08:00am 13.2 10.8 11.3 88 1.0 WSW 15 20 8 11 1010.0 1009.7 1.4
25/07:30am 13.5 14.0 11.6 88 1.0 CALM 0 0 0 0 1008.6 1008.3 1.0
25/07:00am 12.8 13.3 11.5 92 0.7 CALM 0 0 0 0 1008.6 1008.3 1.0
25/06:30am 12.3 12.6 11.0 92 0.7 CALM 0 0 0 0 1008.7 1008.4 1.0
25/06:00am 11.7 11.8 10.1 90 0.8 CALM 0 0 0 0 1008.3 1008.0 1.0
25/05:30am 12.3 10.9 10.9 91 0.7 N 9 13 5 7 1008.2 1007.9 1.0
25/05:00am 12.4 11.4 11.1 92 0.7 N 7 15 4 8 1008.2 1007.9 1.0
25/04:30am 12.3 12.6 10.9 91 0.7 CALM 0 0 0 0 1008.3 1008.0 0.8
25/04:00am 12.4 12.7 11.0 91 0.7 CALM 0 0 0 0 1008.0 1007.7 0.8
25/03:30am 12.5 12.8 10.9 90 0.8 CALM 0 0 0 0 1008.5 1008.2 0.8
25/03:00am 12.7 13.0 10.9 89 1.0 CALM 0 0 0 0 1008.9 1008.6 0.4
25/02:30am 12.8 13.1 11.0 89 1.0 CALM 0 0 0 0 1009.0 1008.7 0.0
25/02:00am 12.4 12.7 10.8 90 0.8 CALM 0 0 0 0 1008.9 1008.6 0.0
25/01:30am 12.4 12.7 10.8 90 0.8 CALM 0 0 0 0 1008.6 1008.3 0.0
25/01:00am 12.6 12.9 11.0 90 0.9 CALM 0 0 0 0 1009.1 1008.8 0.0
25/12:30am 12.4 12.6 10.6 89 0.9 CALM 0 0 0 0 1009.6 1009.3 0.0
25/12:00am 12.3 12.5 10.4 88 1.0 CALM 0 0 0 0 1009.8 1009.5 0.0
 
Date/Time
EST
Temp
°C
App
Temp
°C
Dew
Point
°C
Rel
Hum
%
Delta-T
°C
Wind Press
QNH
hPa
Press
MSL
hPa
Rain since
9am
mm
Dir  Spd
km/h
Gust
km/h
Spd
kts
Gust
kts
24/11:30pm 12.1 12.3 10.5 90 0.8 CALM 0 0 0 0 1009.7 1009.4 0.0
24/11:00pm 12.2 12.3 10.3 88 1.0 CALM 0 0 0 0 1009.7 1009.4 0.0
24/10:30pm 12.1 11.8 10.2 88 1.0 N 2 7 1 4 1010.3 1009.9 0.0
24/10:00pm 12.1 11.3 9.8 86 1.2 NW 4 9 2 5 1010.1 1009.8 0.0
24/09:30pm 12.5 11.2 9.9 84 1.3 NW 7 11 4 6 1010.4 1010.0 0.0
24/09:00pm 13.7 12.6 9.9 78 2.0 NNW 6 7 3 4 1010.4 1010.0 0.0
24/08:30pm 14.9 14.1 11.1 78 2.0 NW 6 7 3 4 1010.6 1010.2 0.0
24/08:00pm 15.0 14.6 11.0 77 2.2 WNW 4 7 2 4 1010.5 1010.1 0.0
24/07:30pm 15.2 14.4 11.6 79 2.0 W 7 11 4 6 1010.3 1009.9 0.0
24/07:00pm 15.7 14.5 11.7 77 2.2 NW 9 13 5 7 1009.7 1009.4 0.0
24/06:30pm 16.7 14.9 10.8 68 3.2 NNW 11 13 6 7 1009.3 1009.0 0.0
24/06:00pm 18.0 17.4 12.2 69 3.3 NNW 7 9 4 5 1009.3 1009.0 0.0
24/05:30pm 18.6 18.3 12.6 68 3.4 NW 6 7 3 4 1009.3 1009.0 0.0
24/05:00pm 19.3 18.0 11.1 59 4.5 NNW 9 13 5 7 1009.2 1008.9 0.0
24/04:30pm 19.7 19.0 12.0 61 4.3 NW 7 9 4 5 1009.0 1008.7 0.0
24/04:00pm 21.7 20.3 10.8 50 6.1 NW 9 11 5 6 1008.8 1008.5 0.0
24/03:30pm 21.3 19.8 10.5 50 6.0 NW 9 13 5 7 1009.0 1008.7 0.0
24/03:00pm 21.7 19.3 10.2 48 6.3 NW 13 19 7 10 1008.9 1008.6 0.0
24/02:30pm 21.5 20.5 10.9 51 5.9 NNW 7 13 4 7 1009.1 1008.8 0.0
24/02:00pm 21.5 19.9 10.3 49 6.2 NW 9 17 5 9 1009.5 1009.2 0.0
24/01:30pm 21.0 18.9 9.9 49 6.1 WNW 11 19 6 10 1010.0 1009.7 0.0
24/01:00pm 21.1 19.6 10.6 51 5.8 NW 9 13 5 7 1010.4 1010.0 0.0
24/12:30pm 20.4 18.9 10.5 53 5.4 WNW 9 15 5 8 1010.9 1010.6 0.0
24/12:00pm 20.2 18.1 9.7 51 5.7 NW 11 17 6 9 1011.6 1011.3 0.0
24/11:30am 19.9 18.7 11.7 59 4.6 NW 9 15 5 8 1012.1 1011.8 0.0
24/11:00am 19.0 17.9 11.8 63 4.0 NW 9 13 5 7 1012.7 1012.4 0.0
24/10:30am 18.1 17.3 11.7 66 3.6 W 7 13 4 7 1013.2 1012.9 0.0
24/10:00am 17.3 16.7 11.8 70 3.0 W 6 9 3 5 1013.4 1013.1 0.0
24/09:30am 16.5 16.8 11.0 70 3.0 CALM 0 0 0 0 1013.6 1013.3 0.0
24/09:00am 16.0 16.1 11.4 74 2.5 ESE 2 9 1 5 1013.6 1013.3 0.0
24/08:30am 15.0 14.2 11.2 78 2.1 ENE 6 9 3 5 1013.7 1013.4 0.0
24/08:00am 13.6 12.7 11.3 86 1.2 E 7 9 4 5 1013.6 1013.3 0.0
24/07:30am 11.4 11.6 10.6 95 0.4 CALM 0 0 0 0 1013.6 1013.3 0.0
24/07:00am 9.1 8.7 8.3 95 0.4 CALM 0 4 0 2 1013.4 1013.1 0.0
24/06:30am 7.8 5.8 7.1 95 0.3 ESE 7 11 4 6 1013.1 1012.8 0.0
24/06:00am 5.6 3.1 4.7 94 0.4 ESE 7 7 4 4 1012.9 1012.6 0.0
24/05:30am 5.7 3.8 4.8 94 0.4 ENE 4 7 2 4 1012.9 1012.6 0.0
24/05:00am 5.6 4.4 4.7 94 0.4 CALM 0 0 0 0 1012.6 1012.3 0.0
24/04:30am 5.9 4.8 4.9 93 0.4 CALM 0 0 0 0 1012.2 1011.9 0.0
24/04:00am 6.2 5.1 5.2 93 0.4 CALM 0 0 0 0 1012.1 1011.8 0.0
24/03:30am 6.5 5.5 5.5 93 0.4 CALM 0 0 0 0 1012.1 1011.8 0.0
24/03:00am 7.8 7.1 6.9 94 0.4 CALM 0 0 0 0 1012.1 1011.8 0.0
24/02:30am 8.0 7.3 6.9 93 0.5 CALM 0 0 0 0 1012.0 1011.7 0.0
24/02:00am 8.5 6.8 7.4 93 0.5 WSW 6 7 3 4 1012.1 1011.8 0.0
24/01:30am 8.7 7.0 7.5 92 0.6 WNW 6 7 3 4 1012.1 1011.8 0.0
24/01:00am 9.1 7.2 7.7 91 0.7 W 7 9 4 5 1012.2 1011.9 0.0
24/12:30am 9.1 7.2 7.7 91 0.7 WNW 7 11 4 6 1012.5 1012.2 0.0
24/12:00am 9.5 8.0 8.4 93 0.5 WSW 6 11 3 6 1012.7 1012.4 0.0
 
Date/Time
EST
Temp
°C
App
Temp
°C
Dew
Point
°C
Rel
Hum
%
Delta-T
°C
Wind Press
QNH
hPa
Press
MSL
hPa
Rain since
9am
mm
Dir  Spd
km/h
Gust
km/h
Spd
kts
Gust
kts
23/11:30pm 9.8 9.4 8.2 90 0.8 CALM 0 0 0 0 1012.7 1012.4 0.0
23/11:00pm 10.8 9.8 8.7 87 1.1 W 4 7 2 4 1012.7 1012.4 0.0
23/10:30pm 11.5 9.6 9.2 86 1.2 NW 9 11 5 6 1012.7 1012.4 0.0
23/10:00pm 10.7 9.3 9.5 92 0.6 WNW 7 9 4 5 1012.9 1012.6 0.0
23/09:30pm 10.6 10.5 9.4 92 0.6 CALM 0 0 0 0 1013.0 1012.7 0.0
23/09:00pm 10.4 10.1 8.5 88 0.9 CALM 0 0 0 0 1013.0 1012.7 0.0
23/08:30pm 10.7 9.3 9.0 89 0.9 NNE 6 11 3 6 1012.8 1012.5 0.0
23/08:00pm 11.9 10.7 9.6 86 1.2 WSW 6 6 3 3 1012.6 1012.3 0.0
23/07:30pm 12.5 11.4 10.6 88 1.0 WSW 7 7 4 4 1012.4 1012.1 0.0
23/07:00pm 13.4 12.4 10.4 82 1.6 WNW 6 7 3 4 1012.2 1011.9 0.0
23/06:30pm 14.4 13.6 11.2 81 1.7 NNW 6 7 3 4 1012.1 1011.8 0.0
23/06:00pm 15.2 14.3 11.4 78 2.1 N 7 9 4 5 1011.7 1011.4 0.0
23/05:30pm 17.6 16.0 10.2 62 4.0 NNW 9 11 5 6 1011.4 1011.1 0.0
23/05:00pm 19.1 18.2 11.2 60 4.4 NNW 7 9 4 5 1011.4 1011.1 0.0
23/04:30pm 19.8 18.4 11.0 57 4.9 NNW 9 13 5 7 1011.3 1011.0 0.0
23/04:00pm 19.9 18.0 10.6 55 5.1 NNW 11 17 6 9 1011.3 1011.0 0.0
23/03:30pm 19.9 18.0 10.6 55 5.1 NNW 11 17 6 9 1011.3 1011.0 0.0
23/03:00pm 19.9 17.7 9.5 51 5.6 NNW 11 17 6 9 1011.4 1011.1 0.0
23/02:30pm 20.0 17.8 10.7 55 5.1 NNW 13 19 7 10 1011.9 1011.6 0.0
23/02:00pm 19.4 16.6 9.9 54 5.1 NNW 15 20 8 11 1012.1 1011.8 0.0
23/01:30pm 19.3 17.0 10.6 57 4.8 NW 13 20 7 11 1012.4 1012.1 0.0
23/01:00pm 19.3 17.0 10.6 57 4.8 NW 13 22 7 12 1012.4 1012.1 0.0
23/12:30pm 18.6 16.7 10.4 59 4.5 NNW 11 17 6 9 1012.9 1012.6 0.0
23/12:00pm 18.0 15.6 10.1 60 4.3 NW 13 20 7 11 1013.2 1012.9 0.0
23/11:30am 17.5 15.0 9.7 60 4.2 NW 13 19 7 10 1013.6 1013.3 0.0
23/11:00am 16.8 14.4 10.2 65 3.5 WNW 13 20 7 11 1013.7 1013.4 0.0
23/10:30am 15.9 13.8 9.8 67 3.2 NW 11 17 6 9 1014.1 1013.9 0.0
23/10:00am 15.9 14.6 11.1 73 2.6 NNW 9 17 5 9 1014.4 1014.1 0.0
23/09:30am 14.6 12.7 9.0 69 2.9 NNW 9 13 5 7 1014.6 1014.3 0.0
23/09:00am 13.5 11.5 8.6 72 2.5 NW 9 13 5 7 1014.8 1014.5 0.0
23/08:30am 13.1 11.7 9.4 78 1.9 N 7 11 4 6 1014.7 1014.4 0.0
23/08:00am 11.9 9.9 8.6 80 1.7 NW 9 13 5 7 1014.7 1014.4 0.0
23/07:30am 10.9 9.4 9.0 88 1.0 NW 7 13 4 7 1014.6 1014.3 0.0
23/07:00am 8.9 8.3 7.4 90 0.7 CALM 0 0 0 0 1014.5 1014.2 0.0
23/06:30am 6.8 5.8 5.4 91 0.6 CALM 0 0 0 0 1014.1 1013.9 0.0
23/06:00am 6.0 4.0 4.6 91 0.6 NW 4 9 2 5 1013.6 1013.3 0.0
23/05:30am 7.0 4.3 5.6 91 0.6 NNW 9 11 5 6 1013.2 1012.9 0.0
23/05:00am 7.1 3.7 5.7 91 0.6 NNW 13 17 7 9 1013.0 1012.7 0.0
23/04:30am 6.8 3.3 5.4 91 0.6 N 13 15 7 8 1012.7 1012.4 0.0
23/04:00am 7.0 3.9 5.6 91 0.6 NW 11 17 6 9 1012.7 1012.4 0.0
23/03:30am 7.1 4.0 5.7 91 0.6 N 11 15 6 8 1012.7 1012.4 0.0
23/03:00am 8.3 5.0 6.4 88 0.9 WNW 13 17 7 9 1012.8 1012.5 0.0
23/02:30am 9.1 5.6 7.1 87 1.0 WNW 15 17 8 9 1012.7 1012.4 0.0
23/02:00am 8.9 6.3 6.3 84 1.2 WNW 9 13 5 7 1012.9 1012.6 0.0
23/01:30am 10.3 7.2 7.2 81 1.5 WNW 13 17 7 9 1013.2 1012.9 0.0
23/01:00am 11.0 7.2 7.7 80 1.6 W 17 22 9 12 1013.6 1013.3 0.0
23/12:30am 11.2 7.8 7.7 79 1.7 W 15 20 8 11 1013.9 1013.7 0.0
23/12:00am 11.0 7.7 7.9 81 1.5 WNW 15 19 8 10 1014.1 1013.9 0.0
 
Date/Time
EST
Temp
°C
App
Temp
°C
Dew
Point
°C
Rel
Hum
%
Delta-T
°C
Wind Press
QNH
hPa
Press
MSL
hPa
Rain since
9am
mm
Dir  Spd
km/h
Gust
km/h
Spd
kts
Gust
kts
22/11:30pm 10.5 7.5 7.9 84 1.3 WNW 13 15 7 8 1014.1 1013.9 0.0
22/11:00pm 10.4 8.6 8.0 85 1.2 W 7 11 4 6 1014.3 1014.0 0.0
22/10:30pm 9.0 6.9 6.8 86 1.0 NNW 7 11 4 6 1014.1 1013.9 0.0
22/10:00pm 10.4 7.7 7.5 82 1.4 W 11 17 6 9 1014.5 1014.2 0.0
22/09:30pm 9.8 6.7 7.1 83 1.3 WSW 13 17 7 9 1014.4 1014.1 0.0
22/09:00pm 9.8 7.4 6.9 82 1.4 W 9 11 5 6 1014.5 1014.2 0.0
22/08:30pm 10.1 7.4 7.2 82 1.4 WNW 11 19 6 10 1014.4 1014.1 0.0
22/08:00pm 9.8 6.2 6.7 81 1.5 W 15 19 8 10 1014.3 1014.0 0.0
22/07:30pm 10.7 7.5 6.8 77 1.9 W 13 15 7 8 1014.3 1014.0 0.0
22/07:00pm 11.8 8.6 6.9 72 2.4 WSW 13 19 7 10 1013.9 1013.7 0.0
22/06:30pm 11.8 8.5 6.5 70 2.5 WSW 13 17 7 9 1013.4 1013.1 0.0
22/06:00pm 12.6 9.0 6.6 67 2.9 WSW 15 20 8 11 1013.0 1012.7 0.0
22/05:30pm 14.1 9.7 6.5 60 3.7 WSW 19 26 10 14 1012.7 1012.4 0.0
22/05:00pm 15.8 9.6 6.0 52 4.8 WSW 28 43 15 23 1012.6 1012.3 0.0
22/04:35pm 16.9 10.7 7.8 55 4.7 WSW 30 48 16 26 1012.3 1012.0 0.0
22/04:30pm 16.7 9.8 7.1 53 4.8 WSW 33 48 18 26 1012.2 1011.9 0.0
22/04:00pm 17.3 11.8 7.6 53 5.0 WSW 26 43 14 23 1011.8 1011.5 0.0
22/03:30pm 17.3 11.0 7.4 52 5.0 WSW 30 43 16 23 1011.4 1011.1 0.0
22/03:00pm 17.1 10.2 6.6 50 5.3 WSW 32 44 17 24 1011.3 1011.0 0.0
22/02:30pm 16.9 10.1 7.0 52 5.0 WSW 32 44 17 24 1011.4 1011.1 0.0
22/02:00pm 17.6 11.2 6.8 49 5.4 WSW 30 41 16 22 1011.4 1011.1 0.0
22/01:30pm 17.9 12.0 7.3 50 5.4 WSW 28 39 15 21 1011.5 1011.2 0.0
22/01:00pm 18.4 13.6 8.9 54 5.0 W 24 37 13 20 1011.6 1011.3 0.0
22/12:30pm 18.0 13.0 9.6 58 4.5 WSW 26 39 14 21 1011.8 1011.5 0.0
22/12:00pm 17.9 14.3 9.8 59 4.3 W 19 28 10 15 1012.1 1011.8 0.0
22/11:30am 15.7 12.0 9.4 66 3.3 WSW 19 30 10 16 1012.6 1012.3 0.0
22/11:00am 15.5 11.0 8.7 64 3.5 WSW 22 30 12 16 1012.8 1012.5 0.0
22/10:30am 15.8 12.0 9.2 65 3.4 WNW 19 24 10 13 1012.9 1012.6 0.0
22/10:00am 16.1 12.9 11.1 72 2.7 WNW 19 30 10 16 1013.1 1012.8 0.0
22/09:30am 14.2 11.3 9.8 75 2.3 WNW 15 20 8 11 1013.2 1012.9 0.0
22/09:00am 14.3 11.6 10.3 77 2.1 NW 15 22 8 12 1013.3 1013.0 1.0

Other Formats:

Comma delimited format used in spreadsheet applications
http://www.bom.gov.au/fwo/IDN60801/IDN60801.95740.axf

JavaScript Object Notation format (JSON) in row-major order
http://www.bom.gov.au/fwo/IDN60801/IDN60801.95740.json